sensor_id;sensor_type;location;lat;lon;timestamp;P1;durP1;ratioP1;P2;durP2;ratioP2
69837;SDS011;57135;51.992;4.476;2024-02-04T00:01:15;9.20;;;8.53;;
69837;SDS011;57135;51.992;4.476;2024-02-04T00:03:40;8.94;;;8.39;;
69837;SDS011;57135;51.992;4.476;2024-02-04T00:06:06;8.53;;;8.05;;
69837;SDS011;57135;51.992;4.476;2024-02-04T00:08:32;8.42;;;7.92;;
69837;SDS011;57135;51.992;4.476;2024-02-04T00:10:58;8.35;;;7.81;;
69837;SDS011;57135;51.992;4.476;2024-02-04T00:13:24;8.88;;;8.23;;
69837;SDS011;57135;51.992;4.476;2024-02-04T00:15:49;8.48;;;8.00;;
69837;SDS011;57135;51.992;4.476;2024-02-04T00:18:15;7.77;;;7.49;;
69837;SDS011;57135;51.992;4.476;2024-02-04T00:20:40;8.41;;;8.04;;
69837;SDS011;57135;51.992;4.476;2024-02-04T00:23:06;8.32;;;7.95;;
69837;SDS011;57135;51.992;4.476;2024-02-04T00:25:31;7.76;;;7.48;;
69837;SDS011;57135;51.992;4.476;2024-02-04T00:27:57;8.21;;;7.81;;
69837;SDS011;57135;51.992;4.476;2024-02-04T00:30:22;8.29;;;7.89;;
69837;SDS011;57135;51.992;4.476;2024-02-04T00:32:48;8.70;;;8.35;;
69837;SDS011;57135;51.992;4.476;2024-02-04T00:35:13;8.63;;;8.13;;
69837;SDS011;57135;51.992;4.476;2024-02-04T00:37:39;8.45;;;8.05;;
69837;SDS011;57135;51.992;4.476;2024-02-04T00:40:04;7.91;;;7.66;;
69837;SDS011;57135;51.992;4.476;2024-02-04T00:42:30;8.14;;;7.86;;
69837;SDS011;57135;51.992;4.476;2024-02-04T00:44:55;7.58;;;7.39;;
69837;SDS011;57135;51.992;4.476;2024-02-04T00:47:21;8.15;;;7.99;;
69837;SDS011;57135;51.992;4.476;2024-02-04T00:49:46;8.22;;;8.01;;
69837;SDS011;57135;51.992;4.476;2024-02-04T00:52:12;7.96;;;7.77;;
69837;SDS011;57135;51.992;4.476;2024-02-04T00:54:38;8.53;;;8.23;;
69837;SDS011;57135;51.992;4.476;2024-02-04T00:57:03;8.42;;;8.15;;
69837;SDS011;57135;51.992;4.476;2024-02-04T00:59:30;8.18;;;7.95;;
69837;SDS011;57135;51.992;4.476;2024-02-04T01:01:55;8.13;;;7.99;;
69837;SDS011;57135;51.992;4.476;2024-02-04T01:04:21;8.33;;;8.18;;
69837;SDS011;57135;51.992;4.476;2024-02-04T01:06:48;8.73;;;8.48;;
69837;SDS011;57135;51.992;4.476;2024-02-04T01:09:13;8.71;;;8.30;;
69837;SDS011;57135;51.992;4.476;2024-02-04T01:11:39;8.57;;;8.37;;
69837;SDS011;57135;51.992;4.476;2024-02-04T01:14:04;9.18;;;8.79;;
69837;SDS011;57135;51.992;4.476;2024-02-04T01:16:30;8.91;;;8.60;;
69837;SDS011;57135;51.992;4.476;2024-02-04T01:18:55;8.68;;;8.30;;
69837;SDS011;57135;51.992;4.476;2024-02-04T01:21:22;8.75;;;8.46;;
69837;SDS011;57135;51.992;4.476;2024-02-04T01:23:47;8.53;;;8.21;;
69837;SDS011;57135;51.992;4.476;2024-02-04T01:26:13;8.90;;;8.56;;
69837;SDS011;57135;51.992;4.476;2024-02-04T01:28:38;9.56;;;9.13;;
69837;SDS011;57135;51.992;4.476;2024-02-04T01:31:04;9.15;;;8.88;;
69837;SDS011;57135;51.992;4.476;2024-02-04T01:33:29;9.76;;;9.46;;
69837;SDS011;57135;51.992;4.476;2024-02-04T01:35:55;9.79;;;9.37;;
69837;SDS011;57135;51.992;4.476;2024-02-04T01:38:20;9.71;;;9.28;;
69837;SDS011;57135;51.992;4.476;2024-02-04T01:40:46;8.80;;;8.59;;
69837;SDS011;57135;51.992;4.476;2024-02-04T01:43:11;8.99;;;8.70;;
69837;SDS011;57135;51.992;4.476;2024-02-04T01:45:37;8.43;;;8.11;;
69837;SDS011;57135;51.992;4.476;2024-02-04T01:48:03;8.54;;;8.43;;
69837;SDS011;57135;51.992;4.476;2024-02-04T01:50:29;8.36;;;8.16;;
69837;SDS011;57135;51.992;4.476;2024-02-04T01:52:55;8.74;;;8.37;;
69837;SDS011;57135;51.992;4.476;2024-02-04T01:55:20;8.97;;;8.68;;
69837;SDS011;57135;51.992;4.476;2024-02-04T01:57:47;8.69;;;8.39;;
69837;SDS011;57135;51.992;4.476;2024-02-04T02:00:14;8.76;;;8.55;;
69837;SDS011;57135;51.992;4.476;2024-02-04T02:02:40;7.97;;;7.78;;
69837;SDS011;57135;51.992;4.476;2024-02-04T02:05:07;7.99;;;7.71;;
69837;SDS011;57135;51.992;4.476;2024-02-04T02:07:33;7.92;;;7.77;;
69837;SDS011;57135;51.992;4.476;2024-02-04T02:09:59;7.80;;;7.70;;
69837;SDS011;57135;51.992;4.476;2024-02-04T02:12:25;8.07;;;7.81;;
69837;SDS011;57135;51.992;4.476;2024-02-04T02:14:55;7.68;;;7.52;;
69837;SDS011;57135;51.992;4.476;2024-02-04T02:17:27;7.88;;;7.54;;
69837;SDS011;57135;51.992;4.476;2024-02-04T02:20:02;8.53;;;8.08;;
69837;SDS011;57135;51.992;4.476;2024-02-04T02:22:39;8.14;;;7.78;;
69837;SDS011;57135;51.992;4.476;2024-02-04T02:25:13;8.99;;;8.41;;
69837;SDS011;57135;51.992;4.476;2024-02-04T02:27:46;8.74;;;8.13;;
69837;SDS011;57135;51.992;4.476;2024-02-04T02:30:15;8.62;;;8.05;;
69837;SDS011;57135;51.992;4.476;2024-02-04T02:32:42;8.18;;;7.81;;
69837;SDS011;57135;51.992;4.476;2024-02-04T02:35:09;8.85;;;8.30;;
69837;SDS011;57135;51.992;4.476;2024-02-04T02:43:03;7.27;;;7.02;;
69837;SDS011;57135;51.992;4.476;2024-02-04T02:45:30;7.67;;;7.40;;
69837;SDS011;57135;51.992;4.476;2024-02-04T02:47:57;7.17;;;6.91;;
69837;SDS011;57135;51.992;4.476;2024-02-04T02:50:23;7.25;;;6.99;;
69837;SDS011;57135;51.992;4.476;2024-02-04T02:52:49;7.55;;;7.44;;
69837;SDS011;57135;51.992;4.476;2024-02-04T02:55:14;7.60;;;7.52;;
69837;SDS011;57135;51.992;4.476;2024-02-04T02:57:40;7.64;;;7.55;;
69837;SDS011;57135;51.992;4.476;2024-02-04T03:00:06;7.27;;;7.15;;
69837;SDS011;57135;51.992;4.476;2024-02-04T03:02:32;7.32;;;7.28;;
69837;SDS011;57135;51.992;4.476;2024-02-04T03:04:58;7.35;;;7.35;;
69837;SDS011;57135;51.992;4.476;2024-02-04T03:07:23;7.32;;;7.32;;
69837;SDS011;57135;51.992;4.476;2024-02-04T03:09:49;7.89;;;7.79;;
69837;SDS011;57135;51.992;4.476;2024-02-04T03:12:14;7.20;;;7.19;;
69837;SDS011;57135;51.992;4.476;2024-02-04T03:14:40;7.86;;;7.85;;
69837;SDS011;57135;51.992;4.476;2024-02-04T03:17:05;7.23;;;7.19;;
69837;SDS011;57135;51.992;4.476;2024-02-04T03:19:31;7.22;;;6.99;;
69837;SDS011;57135;51.992;4.476;2024-02-04T03:21:56;6.81;;;6.55;;
69837;SDS011;57135;51.992;4.476;2024-02-04T03:24:22;6.80;;;6.57;;
69837;SDS011;57135;51.992;4.476;2024-02-04T03:26:47;6.57;;;6.45;;
69837;SDS011;57135;51.992;4.476;2024-02-04T03:29:13;6.36;;;6.27;;
69837;SDS011;57135;51.992;4.476;2024-02-04T03:31:38;6.54;;;6.43;;
69837;SDS011;57135;51.992;4.476;2024-02-04T03:34:03;6.33;;;6.18;;
69837;SDS011;57135;51.992;4.476;2024-02-04T03:36:30;6.58;;;6.31;;
69837;SDS011;57135;51.992;4.476;2024-02-04T03:38:56;6.19;;;5.94;;
69837;SDS011;57135;51.992;4.476;2024-02-04T03:41:22;6.25;;;6.00;;
69837;SDS011;57135;51.992;4.476;2024-02-04T03:43:48;6.13;;;5.84;;
69837;SDS011;57135;51.992;4.476;2024-02-04T03:46:14;5.88;;;5.68;;
69837;SDS011;57135;51.992;4.476;2024-02-04T03:48:40;6.64;;;6.52;;
69837;SDS011;57135;51.992;4.476;2024-02-04T03:51:06;7.32;;;7.13;;
69837;SDS011;57135;51.992;4.476;2024-02-04T03:53:32;7.22;;;7.10;;
69837;SDS011;57135;51.992;4.476;2024-02-04T03:55:58;7.25;;;7.13;;
69837;SDS011;57135;51.992;4.476;2024-02-04T03:58:26;8.39;;;7.99;;
69837;SDS011;57135;51.992;4.476;2024-02-04T04:00:55;7.82;;;7.47;;
69837;SDS011;57135;51.992;4.476;2024-02-04T04:03:21;7.37;;;7.11;;
69837;SDS011;57135;51.992;4.476;2024-02-04T04:05:47;7.70;;;7.50;;
69837;SDS011;57135;51.992;4.476;2024-02-04T04:08:12;7.61;;;7.44;;
69837;SDS011;57135;51.992;4.476;2024-02-04T04:10:38;7.56;;;7.33;;
69837;SDS011;57135;51.992;4.476;2024-02-04T04:13:04;7.75;;;7.41;;
69837;SDS011;57135;51.992;4.476;2024-02-04T04:15:29;7.28;;;7.20;;
69837;SDS011;57135;51.992;4.476;2024-02-04T04:17:55;7.72;;;7.66;;
69837;SDS011;57135;51.992;4.476;2024-02-04T04:20:20;8.09;;;7.96;;
69837;SDS011;57135;51.992;4.476;2024-02-04T04:22:45;7.68;;;7.55;;
69837;SDS011;57135;51.992;4.476;2024-02-04T04:25:11;7.93;;;7.82;;
69837;SDS011;57135;51.992;4.476;2024-02-04T04:27:39;8.76;;;8.63;;
69837;SDS011;57135;51.992;4.476;2024-02-04T04:30:04;8.74;;;8.58;;
69837;SDS011;57135;51.992;4.476;2024-02-04T04:32:30;8.47;;;8.39;;
69837;SDS011;57135;51.992;4.476;2024-02-04T04:35:00;9.21;;;9.08;;
69837;SDS011;57135;51.992;4.476;2024-02-04T04:37:26;8.71;;;8.60;;
69837;SDS011;57135;51.992;4.476;2024-02-04T04:39:51;9.21;;;9.17;;
69837;SDS011;57135;51.992;4.476;2024-02-04T04:42:17;8.37;;;8.36;;
69837;SDS011;57135;51.992;4.476;2024-02-04T04:44:42;8.26;;;8.25;;
69837;SDS011;57135;51.992;4.476;2024-02-04T04:47:08;8.20;;;8.15;;
69837;SDS011;57135;51.992;4.476;2024-02-04T04:49:34;7.98;;;7.92;;
69837;SDS011;57135;51.992;4.476;2024-02-04T04:51:59;8.33;;;8.23;;
69837;SDS011;57135;51.992;4.476;2024-02-04T04:54:25;7.79;;;7.72;;
69837;SDS011;57135;51.992;4.476;2024-02-04T04:56:50;7.43;;;7.27;;
69837;SDS011;57135;51.992;4.476;2024-02-04T04:59:16;7.60;;;7.51;;
69837;SDS011;57135;51.992;4.476;2024-02-04T05:01:48;7.97;;;7.91;;
69837;SDS011;57135;51.992;4.476;2024-02-04T05:04:14;8.38;;;8.31;;
69837;SDS011;57135;51.992;4.476;2024-02-04T05:06:40;8.03;;;8.02;;
69837;SDS011;57135;51.992;4.476;2024-02-04T05:09:06;8.16;;;8.05;;
69837;SDS011;57135;51.992;4.476;2024-02-04T05:11:31;8.19;;;8.00;;
69837;SDS011;57135;51.992;4.476;2024-02-04T05:13:57;8.28;;;8.16;;
69837;SDS011;57135;51.992;4.476;2024-02-04T05:16:22;7.93;;;7.79;;
69837;SDS011;57135;51.992;4.476;2024-02-04T05:18:48;7.27;;;7.14;;
69837;SDS011;57135;51.992;4.476;2024-02-04T05:21:13;7.76;;;7.53;;
69837;SDS011;57135;51.992;4.476;2024-02-04T05:23:38;7.18;;;7.00;;
69837;SDS011;57135;51.992;4.476;2024-02-04T05:26:04;7.10;;;7.01;;
69837;SDS011;57135;51.992;4.476;2024-02-04T05:28:30;7.50;;;7.20;;
69837;SDS011;57135;51.992;4.476;2024-02-04T05:30:56;7.89;;;7.56;;
69837;SDS011;57135;51.992;4.476;2024-02-04T05:33:21;7.74;;;7.45;;
69837;SDS011;57135;51.992;4.476;2024-02-04T05:35:47;7.49;;;7.20;;
69837;SDS011;57135;51.992;4.476;2024-02-04T05:38:12;7.57;;;7.34;;
69837;SDS011;57135;51.992;4.476;2024-02-04T05:40:38;7.03;;;6.82;;
69837;SDS011;57135;51.992;4.476;2024-02-04T05:43:03;6.91;;;6.63;;
69837;SDS011;57135;51.992;4.476;2024-02-04T05:45:32;6.12;;;5.95;;
69837;SDS011;57135;51.992;4.476;2024-02-04T05:48:00;6.44;;;6.26;;
69837;SDS011;57135;51.992;4.476;2024-02-04T05:50:26;5.76;;;5.49;;
69837;SDS011;57135;51.992;4.476;2024-02-04T05:52:51;5.25;;;4.96;;
69837;SDS011;57135;51.992;4.476;2024-02-04T05:55:16;5.53;;;5.00;;
69837;SDS011;57135;51.992;4.476;2024-02-04T05:57:42;6.14;;;5.42;;
69837;SDS011;57135;51.992;4.476;2024-02-04T06:00:08;5.47;;;5.02;;
69837;SDS011;57135;51.992;4.476;2024-02-04T06:02:35;5.69;;;5.30;;
69837;SDS011;57135;51.992;4.476;2024-02-04T06:05:01;5.94;;;5.60;;
69837;SDS011;57135;51.992;4.476;2024-02-04T06:07:27;6.30;;;5.98;;
69837;SDS011;57135;51.992;4.476;2024-02-04T06:09:53;6.10;;;5.88;;
69837;SDS011;57135;51.992;4.476;2024-02-04T06:12:20;6.34;;;6.05;;
69837;SDS011;57135;51.992;4.476;2024-02-04T06:14:46;6.94;;;6.61;;
69837;SDS011;57135;51.992;4.476;2024-02-04T06:17:11;6.33;;;6.07;;
69837;SDS011;57135;51.992;4.476;2024-02-04T06:19:37;6.39;;;6.17;;
69837;SDS011;57135;51.992;4.476;2024-02-04T06:22:02;5.85;;;5.73;;
69837;SDS011;57135;51.992;4.476;2024-02-04T06:24:28;6.26;;;6.07;;
69837;SDS011;57135;51.992;4.476;2024-02-04T06:26:56;6.47;;;6.24;;
69837;SDS011;57135;51.992;4.476;2024-02-04T06:29:21;6.29;;;6.05;;
69837;SDS011;57135;51.992;4.476;2024-02-04T06:31:47;6.25;;;6.00;;
69837;SDS011;57135;51.992;4.476;2024-02-04T06:34:12;6.23;;;5.90;;
69837;SDS011;57135;51.992;4.476;2024-02-04T06:36:38;6.61;;;6.24;;
69837;SDS011;57135;51.992;4.476;2024-02-04T06:39:08;6.04;;;5.70;;
69837;SDS011;57135;51.992;4.476;2024-02-04T06:41:33;6.22;;;5.81;;
69837;SDS011;57135;51.992;4.476;2024-02-04T06:44:00;6.11;;;5.79;;
69837;SDS011;57135;51.992;4.476;2024-02-04T06:46:27;5.55;;;5.25;;
69837;SDS011;57135;51.992;4.476;2024-02-04T06:48:53;5.74;;;5.40;;
69837;SDS011;57135;51.992;4.476;2024-02-04T06:51:19;6.07;;;5.61;;
69837;SDS011;57135;51.992;4.476;2024-02-04T06:53:45;6.63;;;5.90;;
69837;SDS011;57135;51.992;4.476;2024-02-04T06:56:11;6.16;;;5.59;;
69837;SDS011;57135;51.992;4.476;2024-02-04T06:58:40;6.97;;;6.28;;
69837;SDS011;57135;51.992;4.476;2024-02-04T07:01:06;7.32;;;6.60;;
69837;SDS011;57135;51.992;4.476;2024-02-04T07:03:31;6.71;;;6.26;;
69837;SDS011;57135;51.992;4.476;2024-02-04T07:05:59;6.89;;;6.43;;
69837;SDS011;57135;51.992;4.476;2024-02-04T07:08:24;7.65;;;6.97;;
69837;SDS011;57135;51.992;4.476;2024-02-04T07:10:50;8.83;;;7.92;;
69837;SDS011;57135;51.992;4.476;2024-02-04T07:13:16;7.74;;;7.19;;
69837;SDS011;57135;51.992;4.476;2024-02-04T07:15:42;7.77;;;7.12;;
69837;SDS011;57135;51.992;4.476;2024-02-04T07:18:09;7.51;;;6.66;;
69837;SDS011;57135;51.992;4.476;2024-02-04T07:20:35;6.77;;;6.04;;
69837;SDS011;57135;51.992;4.476;2024-02-04T07:23:01;6.86;;;6.14;;
69837;SDS011;57135;51.992;4.476;2024-02-04T07:25:26;5.97;;;5.35;;
69837;SDS011;57135;51.992;4.476;2024-02-04T07:27:52;5.54;;;4.91;;
69837;SDS011;57135;51.992;4.476;2024-02-04T07:30:19;5.67;;;5.11;;
69837;SDS011;57135;51.992;4.476;2024-02-04T07:32:46;5.72;;;5.15;;
69837;SDS011;57135;51.992;4.476;2024-02-04T07:35:11;6.12;;;5.28;;
69837;SDS011;57135;51.992;4.476;2024-02-04T07:37:40;5.71;;;4.97;;
69837;SDS011;57135;51.992;4.476;2024-02-04T07:40:05;6.61;;;5.59;;
69837;SDS011;57135;51.992;4.476;2024-02-04T07:42:54;6.00;;;5.20;;
69837;SDS011;57135;51.992;4.476;2024-02-04T07:45:57;5.08;;;4.62;;
69837;SDS011;57135;51.992;4.476;2024-02-04T07:48:23;5.34;;;4.86;;
69837;SDS011;57135;51.992;4.476;2024-02-04T07:51:08;5.45;;;4.86;;
69837;SDS011;57135;51.992;4.476;2024-02-04T07:53:37;5.40;;;4.86;;
69837;SDS011;57135;51.992;4.476;2024-02-04T07:56:05;5.37;;;4.78;;
69837;SDS011;57135;51.992;4.476;2024-02-04T07:58:48;4.62;;;4.22;;
69837;SDS011;57135;51.992;4.476;2024-02-04T08:01:34;4.81;;;4.41;;
69837;SDS011;57135;51.992;4.476;2024-02-04T08:04:29;4.83;;;4.27;;
69837;SDS011;57135;51.992;4.476;2024-02-04T08:06:56;4.45;;;3.88;;
69837;SDS011;57135;51.992;4.476;2024-02-04T08:09:22;4.03;;;3.58;;
69837;SDS011;57135;51.992;4.476;2024-02-04T08:11:48;3.81;;;3.38;;
69837;SDS011;57135;51.992;4.476;2024-02-04T08:14:13;3.53;;;3.12;;
69837;SDS011;57135;51.992;4.476;2024-02-04T08:16:39;3.91;;;3.37;;
69837;SDS011;57135;51.992;4.476;2024-02-04T08:19:06;4.22;;;3.53;;
69837;SDS011;57135;51.992;4.476;2024-02-04T08:21:32;3.89;;;3.33;;
69837;SDS011;57135;51.992;4.476;2024-02-04T08:23:57;4.23;;;3.62;;
69837;SDS011;57135;51.992;4.476;2024-02-04T08:26:23;3.91;;;3.33;;
69837;SDS011;57135;51.992;4.476;2024-02-04T08:28:49;4.47;;;3.74;;
69837;SDS011;57135;51.992;4.476;2024-02-04T08:31:15;3.79;;;3.18;;
69837;SDS011;57135;51.992;4.476;2024-02-04T08:33:41;4.00;;;3.32;;
69837;SDS011;57135;51.992;4.476;2024-02-04T08:36:07;4.19;;;3.42;;
69837;SDS011;57135;51.992;4.476;2024-02-04T08:38:35;3.92;;;3.21;;
69837;SDS011;57135;51.992;4.476;2024-02-04T08:41:02;3.66;;;3.04;;
69837;SDS011;57135;51.992;4.476;2024-02-04T08:43:27;3.53;;;2.94;;
69837;SDS011;57135;51.992;4.476;2024-02-04T08:45:53;3.83;;;3.11;;
69837;SDS011;57135;51.992;4.476;2024-02-04T08:48:20;3.43;;;2.87;;
69837;SDS011;57135;51.992;4.476;2024-02-04T08:50:45;3.16;;;2.69;;
69837;SDS011;57135;51.992;4.476;2024-02-04T08:53:11;2.83;;;2.44;;
69837;SDS011;57135;51.992;4.476;2024-02-04T08:55:36;3.22;;;2.68;;
69837;SDS011;57135;51.992;4.476;2024-02-04T08:58:02;2.77;;;2.38;;
69837;SDS011;57135;51.992;4.476;2024-02-04T09:00:27;2.62;;;2.27;;
69837;SDS011;57135;51.992;4.476;2024-02-04T09:02:53;2.86;;;2.40;;
69837;SDS011;57135;51.992;4.476;2024-02-04T09:05:18;3.22;;;2.68;;
69837;SDS011;57135;51.992;4.476;2024-02-04T09:07:45;3.29;;;2.70;;
69837;SDS011;57135;51.992;4.476;2024-02-04T09:10:10;3.23;;;2.54;;
69837;SDS011;57135;51.992;4.476;2024-02-04T09:12:36;3.16;;;2.48;;
69837;SDS011;57135;51.992;4.476;2024-02-04T09:15:02;2.98;;;2.37;;
69837;SDS011;57135;51.992;4.476;2024-02-04T09:17:29;3.01;;;2.41;;
69837;SDS011;57135;51.992;4.476;2024-02-04T09:19:55;2.80;;;2.22;;
69837;SDS011;57135;51.992;4.476;2024-02-04T09:22:21;2.89;;;2.27;;
69837;SDS011;57135;51.992;4.476;2024-02-04T09:24:46;2.41;;;1.97;;
69837;SDS011;57135;51.992;4.476;2024-02-04T09:27:13;2.30;;;1.90;;
69837;SDS011;57135;51.992;4.476;2024-02-04T09:29:38;2.07;;;1.75;;
69837;SDS011;57135;51.992;4.476;2024-02-04T09:32:05;1.80;;;1.54;;
69837;SDS011;57135;51.992;4.476;2024-02-04T09:34:30;1.79;;;1.57;;
69837;SDS011;57135;51.992;4.476;2024-02-04T09:36:56;2.46;;;2.29;;
69837;SDS011;57135;51.992;4.476;2024-02-04T09:39:21;3.01;;;2.98;;
69837;SDS011;57135;51.992;4.476;2024-02-04T09:41:47;3.34;;;3.34;;
69837;SDS011;57135;51.992;4.476;2024-02-04T09:44:12;3.10;;;3.08;;
69837;SDS011;57135;51.992;4.476;2024-02-04T09:46:38;2.80;;;2.74;;
69837;SDS011;57135;51.992;4.476;2024-02-04T09:49:03;3.06;;;2.88;;
69837;SDS011;57135;51.992;4.476;2024-02-04T09:51:30;2.55;;;2.33;;
69837;SDS011;57135;51.992;4.476;2024-02-04T09:53:57;2.50;;;2.25;;
69837;SDS011;57135;51.992;4.476;2024-02-04T09:56:28;2.99;;;2.63;;
69837;SDS011;57135;51.992;4.476;2024-02-04T09:58:55;3.26;;;2.80;;
69837;SDS011;57135;51.992;4.476;2024-02-04T10:01:21;2.93;;;2.51;;
69837;SDS011;57135;51.992;4.476;2024-02-04T10:03:48;3.24;;;2.72;;
69837;SDS011;57135;51.992;4.476;2024-02-04T10:06:14;3.54;;;2.89;;
69837;SDS011;57135;51.992;4.476;2024-02-04T10:08:39;3.17;;;2.51;;
69837;SDS011;57135;51.992;4.476;2024-02-04T10:11:05;2.61;;;2.10;;
69837;SDS011;57135;51.992;4.476;2024-02-04T10:13:30;2.86;;;2.24;;
69837;SDS011;57135;51.992;4.476;2024-02-04T10:16:09;3.35;;;2.53;;
69837;SDS011;57135;51.992;4.476;2024-02-04T10:21:22;3.67;;;2.67;;
69837;SDS011;57135;51.992;4.476;2024-02-04T10:23:49;3.80;;;2.72;;
69837;SDS011;57135;51.992;4.476;2024-02-04T10:26:16;4.24;;;2.99;;
69837;SDS011;57135;51.992;4.476;2024-02-04T10:28:46;3.87;;;2.72;;
69837;SDS011;57135;51.992;4.476;2024-02-04T10:31:12;3.35;;;2.40;;
69837;SDS011;57135;51.992;4.476;2024-02-04T10:33:42;3.75;;;2.64;;
69837;SDS011;57135;51.992;4.476;2024-02-04T10:36:07;4.12;;;2.82;;
69837;SDS011;57135;51.992;4.476;2024-02-04T10:38:38;4.38;;;2.98;;
69837;SDS011;57135;51.992;4.476;2024-02-04T10:41:04;4.08;;;2.84;;
69837;SDS011;57135;51.992;4.476;2024-02-04T10:43:36;3.54;;;2.54;;
69837;SDS011;57135;51.992;4.476;2024-02-04T10:46:09;3.91;;;2.75;;
69837;SDS011;57135;51.992;4.476;2024-02-04T10:48:37;4.24;;;3.03;;
69837;SDS011;57135;51.992;4.476;2024-02-04T10:51:12;4.00;;;2.97;;
69837;SDS011;57135;51.992;4.476;2024-02-04T10:53:41;3.36;;;2.51;;
69837;SDS011;57135;51.992;4.476;2024-02-04T10:56:07;3.61;;;2.67;;
69837;SDS011;57135;51.992;4.476;2024-02-04T10:58:39;3.52;;;2.54;;
69837;SDS011;57135;51.992;4.476;2024-02-04T11:01:05;4.23;;;2.95;;
69837;SDS011;57135;51.992;4.476;2024-02-04T11:03:32;4.73;;;3.29;;
69837;SDS011;57135;51.992;4.476;2024-02-04T11:05:58;3.72;;;2.70;;
69837;SDS011;57135;51.992;4.476;2024-02-04T11:08:24;3.97;;;2.93;;
69837;SDS011;57135;51.992;4.476;2024-02-04T11:10:50;3.73;;;2.78;;
69837;SDS011;57135;51.992;4.476;2024-02-04T11:13:17;3.80;;;2.85;;
69837;SDS011;57135;51.992;4.476;2024-02-04T11:15:47;3.61;;;2.73;;
69837;SDS011;57135;51.992;4.476;2024-02-04T11:21:31;3.70;;;2.80;;
69837;SDS011;57135;51.992;4.476;2024-02-04T11:24:23;3.94;;;2.88;;
69837;SDS011;57135;51.992;4.476;2024-02-04T11:26:57;4.42;;;3.25;;
69837;SDS011;57135;51.992;4.476;2024-02-04T11:29:23;4.77;;;3.46;;
69837;SDS011;57135;51.992;4.476;2024-02-04T11:31:50;4.57;;;3.30;;
69837;SDS011;57135;51.992;4.476;2024-02-04T11:34:16;4.82;;;3.48;;
69837;SDS011;57135;51.992;4.476;2024-02-04T11:36:42;5.21;;;3.67;;
69837;SDS011;57135;51.992;4.476;2024-02-04T11:39:11;3.96;;;2.87;;
69837;SDS011;57135;51.992;4.476;2024-02-04T11:41:46;3.83;;;2.81;;
69837;SDS011;57135;51.992;4.476;2024-02-04T11:44:12;4.06;;;2.92;;
69837;SDS011;57135;51.992;4.476;2024-02-04T11:46:38;4.53;;;3.19;;
69837;SDS011;57135;51.992;4.476;2024-02-04T11:49:03;4.75;;;3.28;;
69837;SDS011;57135;51.992;4.476;2024-02-04T11:51:29;4.97;;;3.39;;
69837;SDS011;57135;51.992;4.476;2024-02-04T11:53:55;4.45;;;3.09;;
69837;SDS011;57135;51.992;4.476;2024-02-04T11:56:21;5.24;;;3.66;;
69837;SDS011;57135;51.992;4.476;2024-02-04T11:58:48;5.08;;;3.47;;
69837;SDS011;57135;51.992;4.476;2024-02-04T12:01:14;5.37;;;3.64;;
69837;SDS011;57135;51.992;4.476;2024-02-04T12:03:40;5.88;;;3.94;;
69837;SDS011;57135;51.992;4.476;2024-02-04T12:06:06;5.81;;;3.98;;
69837;SDS011;57135;51.992;4.476;2024-02-04T12:08:32;5.99;;;4.14;;
69837;SDS011;57135;51.992;4.476;2024-02-04T12:10:59;5.91;;;4.22;;
69837;SDS011;57135;51.992;4.476;2024-02-04T12:13:27;5.69;;;4.19;;
69837;SDS011;57135;51.992;4.476;2024-02-04T12:15:57;6.06;;;4.60;;
69837;SDS011;57135;51.992;4.476;2024-02-04T12:18:24;4.83;;;3.79;;
69837;SDS011;57135;51.992;4.476;2024-02-04T12:20:51;5.03;;;4.05;;
69837;SDS011;57135;51.992;4.476;2024-02-04T12:23:39;5.26;;;4.21;;
69837;SDS011;57135;51.992;4.476;2024-02-04T12:26:04;5.27;;;4.22;;
69837;SDS011;57135;51.992;4.476;2024-02-04T12:28:30;4.42;;;3.55;;
69837;SDS011;57135;51.992;4.476;2024-02-04T12:30:56;5.55;;;4.40;;
69837;SDS011;57135;51.992;4.476;2024-02-04T12:33:25;5.07;;;3.94;;
69837;SDS011;57135;51.992;4.476;2024-02-04T12:35:51;4.71;;;3.66;;
69837;SDS011;57135;51.992;4.476;2024-02-04T12:38:17;4.88;;;3.78;;
69837;SDS011;57135;51.992;4.476;2024-02-04T12:40:43;5.32;;;3.98;;
69837;SDS011;57135;51.992;4.476;2024-02-04T12:43:10;5.96;;;4.29;;
69837;SDS011;57135;51.992;4.476;2024-02-04T12:45:36;5.94;;;4.37;;
69837;SDS011;57135;51.992;4.476;2024-02-04T12:48:02;5.93;;;4.24;;
69837;SDS011;57135;51.992;4.476;2024-02-04T12:50:28;5.75;;;4.16;;
69837;SDS011;57135;51.992;4.476;2024-02-04T12:53:07;5.33;;;3.93;;
69837;SDS011;57135;51.992;4.476;2024-02-04T12:55:34;5.26;;;3.91;;
69837;SDS011;57135;51.992;4.476;2024-02-04T12:58:04;5.32;;;3.97;;
69837;SDS011;57135;51.992;4.476;2024-02-04T13:00:32;5.27;;;3.93;;
69837;SDS011;57135;51.992;4.476;2024-02-04T13:02:58;5.14;;;3.83;;
69837;SDS011;57135;51.992;4.476;2024-02-04T13:05:24;5.54;;;4.04;;
69837;SDS011;57135;51.992;4.476;2024-02-04T13:07:51;4.44;;;3.28;;
69837;SDS011;57135;51.992;4.476;2024-02-04T13:10:27;5.35;;;3.94;;
69837;SDS011;57135;51.992;4.476;2024-02-04T13:13:05;4.89;;;3.51;;
69837;SDS011;57135;51.992;4.476;2024-02-04T13:15:36;4.65;;;3.34;;
69837;SDS011;57135;51.992;4.476;2024-02-04T13:18:03;4.85;;;3.44;;
69837;SDS011;57135;51.992;4.476;2024-02-04T13:20:29;4.91;;;3.49;;
69837;SDS011;57135;51.992;4.476;2024-02-04T13:22:55;5.00;;;3.58;;
69837;SDS011;57135;51.992;4.476;2024-02-04T13:25:22;4.88;;;3.46;;
69837;SDS011;57135;51.992;4.476;2024-02-04T13:27:51;5.10;;;3.60;;
69837;SDS011;57135;51.992;4.476;2024-02-04T13:30:17;5.33;;;3.69;;
69837;SDS011;57135;51.992;4.476;2024-02-04T13:32:44;6.64;;;4.53;;
69837;SDS011;57135;51.992;4.476;2024-02-04T13:35:09;6.18;;;4.20;;
69837;SDS011;57135;51.992;4.476;2024-02-04T13:37:38;6.90;;;4.79;;
69837;SDS011;57135;51.992;4.476;2024-02-04T13:40:05;5.76;;;4.06;;
69837;SDS011;57135;51.992;4.476;2024-02-04T13:42:32;6.23;;;4.36;;
69837;SDS011;57135;51.992;4.476;2024-02-04T13:44:59;6.02;;;4.27;;
69837;SDS011;57135;51.992;4.476;2024-02-04T13:47:25;6.28;;;4.37;;
69837;SDS011;57135;51.992;4.476;2024-02-04T13:49:52;5.41;;;3.76;;
69837;SDS011;57135;51.992;4.476;2024-02-04T13:52:17;5.20;;;3.62;;
69837;SDS011;57135;51.992;4.476;2024-02-04T13:54:43;5.83;;;4.08;;
69837;SDS011;57135;51.992;4.476;2024-02-04T13:57:09;5.98;;;4.17;;
69837;SDS011;57135;51.992;4.476;2024-02-04T13:59:34;5.77;;;4.02;;
69837;SDS011;57135;51.992;4.476;2024-02-04T14:01:59;5.94;;;4.13;;
69837;SDS011;57135;51.992;4.476;2024-02-04T14:04:26;6.00;;;4.10;;
69837;SDS011;57135;51.992;4.476;2024-02-04T14:06:51;6.76;;;4.69;;
69837;SDS011;57135;51.992;4.476;2024-02-04T14:09:17;5.64;;;3.92;;
69837;SDS011;57135;51.992;4.476;2024-02-04T14:11:42;6.26;;;4.27;;
69837;SDS011;57135;51.992;4.476;2024-02-04T14:14:08;6.49;;;4.44;;
69837;SDS011;57135;51.992;4.476;2024-02-04T14:16:33;6.19;;;4.31;;
69837;SDS011;57135;51.992;4.476;2024-02-04T14:18:59;5.97;;;4.18;;
69837;SDS011;57135;51.992;4.476;2024-02-04T14:21:24;7.75;;;5.30;;
69837;SDS011;57135;51.992;4.476;2024-02-04T14:23:51;8.32;;;5.51;;
69837;SDS011;57135;51.992;4.476;2024-02-04T14:26:17;7.09;;;4.77;;
69837;SDS011;57135;51.992;4.476;2024-02-04T14:28:43;7.17;;;4.88;;
69837;SDS011;57135;51.992;4.476;2024-02-04T14:31:09;7.12;;;4.85;;
69837;SDS011;57135;51.992;4.476;2024-02-04T14:33:34;6.13;;;4.16;;
69837;SDS011;57135;51.992;4.476;2024-02-04T14:36:01;6.32;;;4.34;;
69837;SDS011;57135;51.992;4.476;2024-02-04T14:38:27;6.99;;;4.87;;
69837;SDS011;57135;51.992;4.476;2024-02-04T14:40:52;8.57;;;5.82;;
69837;SDS011;57135;51.992;4.476;2024-02-04T14:43:18;7.08;;;4.71;;
69837;SDS011;57135;51.992;4.476;2024-02-04T14:45:46;7.36;;;5.00;;
69837;SDS011;57135;51.992;4.476;2024-02-04T14:48:12;7.57;;;5.08;;
69837;SDS011;57135;51.992;4.476;2024-02-04T14:50:38;7.84;;;5.26;;
69837;SDS011;57135;51.992;4.476;2024-02-04T14:53:03;7.86;;;5.26;;
69837;SDS011;57135;51.992;4.476;2024-02-04T14:55:29;7.73;;;5.21;;
69837;SDS011;57135;51.992;4.476;2024-02-04T14:57:54;6.78;;;4.73;;